Data for 02/05/2008

Time Sea-Level Adjusted Pressure Absolute Pressure Temperature Relative Humidity Dew Point   
(mb) (inHg) (mb) (inHg) (C) (F) (%) (C) (F)
00:05 1017 30.03 847 25.01 -9.7 14.5 79 -12.8 9
00:10 1017 30.03 847 25.01 -9.7 14.6 79 -12.6 9.3
00:15 1017 30.03 846 24.98 -9.9 14.2 80 -12.8 9
00:20 1017 30.03 846 24.98 -10.2 13.6 81 -12.9 8.8
00:25 1017 30.03 846 24.98 -10.4 13.3 82 -12.9 8.9
00:30 1017 30.03 846 24.98 -10.4 13.2 83 -12.8 8.9
00:35 1017 30.03 847 25.01 -10.3 13.6 82 -12.7 9.1
00:40 1017 30.03 847 25.01 -10 13.9 81 -12.7 9.1
00:45 1017 30.03 847 25.01 -9.9 14.2 81 -12.5 9.4
00:50 1017 30.03 847 25.01 -9.6 14.7 79 -12.5 9.4
00:55 1017 30.03 846 24.98 -9.4 15.1 79 -12.4 9.7
01:00 1017 30.03 847 25.01 -9.3 15.3 79 -12.3 9.9
01:05 1017 30.03 847 25.01 -9.3 15.3 79 -12.4 9.8
01:10 1017 30.03 847 25.01 -9.4 15 80 -12.3 9.8
01:15 1017 30.03 847 25.01 -9.6 14.8 79 -12.6 9.4
01:20 1017 30.03 847 25.01 -9.7 14.6 80 -12.5 9.4
01:25 1017 30.03 847 25.01 -9.6 14.7 81 -12.3 9.8
01:30 1018 30.06 847 25.01 -9.6 14.8 80 -12.4 9.7
01:35 1018 30.06 847 25.01 -9.7 14.5 80 -12.5 9.6
01:40 1018 30.06 847 25.01 -9.8 14.4 82 -12.3 9.8
01:45 1018 30.06 847 25.01 -9.7 14.5 80 -12.6 9.4
01:50 1018 30.06 847 25.01 -9.7 14.6 79 -12.7 9.1
01:55 1018 30.06 847 25.01 -10 13.9 80 -12.8 9
02:00 1018 30.06 847 25.01 -10.1 13.9 77 -13.4 7.9
02:05 1018 30.06 847 25.01 -10.1 13.9 75 -13.8 7.2
02:10 1018 30.06 847 25.01 -10.2 13.6 72 -14.3 6.2
02:15 1018 30.06 847 25.01 -10.2 13.6 73 -14.2 6.5
02:20 1018 30.06 847 25.01 -10.2 13.7 71 -14.5 6
02:25 1018 30.06 847 25.01 -9.9 14.2 68 -14.8 5.3
02:30 1018 30.06 847 25.01 -10 14 68 -14.9 5.2
02:35 1018 30.06 847 25.01 -10.1 13.9 68 -14.9 5.2
02:40 1018 30.06 847 25.01 -9.7 14.6 67 -14.7 5.5
02:45 1018 30.06 847 25.01 -9.4 15.1 65 -14.7 5.5
02:50 1018 30.06 847 25.01 -8.9 16 63 -14.7 5.5
02:55 1018 30.06 847 25.01 -8.5 16.7 61 -14.7 5.6
03:00 1018 30.06 847 25.01 -8.9 16.1 64 -14.5 5.9
03:05 1018 30.06 847 25.01 -9.9 14.1 68 -14.8 5.3
03:10 1018 30.06 847 25.01 -9.8 14.3 65 -15.2 4.6
03:15 1018 30.06 847 25.01 -9.3 15.3 63 -15.1 4.9
03:20 1018 30.06 847 25.01 -9.8 14.5 67 -14.8 5.3
03:25 1018 30.06 847 25.01 -10.2 13.7 67 -15.1 4.8
03:30 1018 30.06 847 25.01 -10.2 13.6 67 -15.2 4.6
03:35 1018 30.06 848 25.04 -10.2 13.7 68 -15.1 4.9
03:40 1018 30.06 848 25.04 -10.2 13.7 68 -15.1 4.8
03:45 1018 30.06 848 25.04 -10.5 13.1 69 -15.1 4.8
03:50 1018 30.06 848 25.04 -10.5 13.1 67 -15.5 4.2
03:55 1018 30.06 848 25.04 -10.3 13.4 67 -15.4 4.3
04:00 1018 30.06 847 25.01 -10.6 13 68 -15.4 4.3
04:05 1018 30.06 847 25.01 -10.6 12.9 68 -15.4 4.2
04:10 1018 30.06 847 25.01 -10.8 12.7 68 -15.5 4.1
04:15 1018 30.06 847 25.01 -10.8 12.7 67 -15.7 3.7
04:20 1018 30.06 848 25.04 -10.9 12.4 67 -15.8 3.6
04:25 1018 30.06 848 25.04 -10.8 12.5 67 -15.8 3.6
04:30 1018 30.06 848 25.04 -10.4 13.4 65 -15.7 3.8
04:35 1018 30.06 848 25.04 -10 14.1 64 -15.5 4.1
04:40 1018 30.06 848 25.04 -9.8 14.4 64 -15.3 4.4
04:45 1018 30.06 848 25.04 -9.6 14.7 64 -15.3 4.5
04:50 1019 30.09 848 25.04 -9.2 15.5 63 -15.1 4.8
04:55 1019 30.09 848 25.04 -9.1 15.6 62 -15 4.9
05:00 1019 30.09 848 25.04 -9.3 15.3 63 -15.1 4.9
05:05 1019 30.09 848 25.04 -9.5 14.8 65 -15 5
05:10 1019 30.09 848 25.04 -9.3 15.3 64 -15 5
05:15 1019 30.09 848 25.04 -9.2 15.5 64 -14.8 5.4
05:20 1019 30.09 848 25.04 -8.9 15.9 62 -14.9 5.2
05:25 1019 30.09 848 25.04 -9 15.9 63 -14.7 5.5
05:30 1019 30.09 848 25.04 -9 15.8 63 -14.7 5.5
05:35 1019 30.09 848 25.04 -9.3 15.3 65 -14.7 5.6
05:40 1019 30.09 848 25.04 -9.4 15.2 65 -14.8 5.3
05:45 1019 30.09 848 25.04 -9.2 15.5 65 -14.7 5.6
05:50 1019 30.09 848 25.04 -9.1 15.6 64 -14.7 5.5
05:55 1019 30.09 848 25.04 -9 15.8 64 -14.6 5.7
06:00 1019 30.09 848 25.04 -8.7 16.3 62 -14.7 5.6
06:05 1019 30.09 848 25.04 -8.5 16.7 63 -14.4 6.2
06:10 1019 30.09 848 25.04 -8.4 16.8 63 -14.4 6.1
06:15 1019 30.09 848 25.04 -8.5 16.7 64 -14.1 6.6
06:20 1019 30.09 848 25.04 -8.6 16.5 65 -14.1 6.6
06:25 1019 30.09 848 25.04 -8.9 16 65 -14.2 6.4
06:30 1019 30.09 848 25.04 -9 15.9 66 -14.2 6.5
06:35 1019 30.09 848 25.04 -8.8 16.2 65 -14.3 6.3
06:40 1019 30.09 848 25.04 -8.5 16.8 64 -14.1 6.6
06:45 1019 30.09 848 25.04 -8.3 17.1 64 -14 6.7
06:50 1019 30.09 848 25.04 -8.2 17.3 63 -14.1 6.7
06:55 1019 30.09 848 25.04 -8 17.6 62 -14.1 6.6
07:00 1019 30.09 848 25.04 -8 17.6 64 -13.7 7.4
07:05 1019 30.09 848 25.04 -8.2 17.2 64 -13.8 7.2
07:10 1019 30.09 848 25.04 -8.3 17 64 -13.9 6.9
07:15 1019 30.09 848 25.04 -8.4 16.9 65 -13.9 7
07:20 1019 30.09 848 25.04 -8.5 16.8 65 -13.8 7.1
07:25 1019 30.09 848 25.04 -8.6 16.6 66 -13.8 7.2
07:30 1019 30.09 848 25.04 -8.6 16.5 67 -13.7 7.3
07:35 1019 30.09 848 25.04 -8.6 16.5 68 -13.5 7.6
07:40 1019 30.09 848 25.04 -8.6 16.5 66 -13.9 7
07:45 1019 30.09 848 25.04 -8.3 17.1 65 -13.8 7.1
07:50 1019 30.09 848 25.04 -8.2 17.3 66 -13.4 7.9
07:55 1019 30.09 848 25.04 -8.2 17.3 64 -13.9 7
08:00 1019 30.09 848 25.04 -8.3 17.1 66 -13.5 7.7
08:05 1019 30.09 848 25.04 -8.3 17.1 64 -14 6.9
08:10 1019 30.09 848 25.04 -8.2 17.3 66 -13.4 7.8
08:15 1019 30.09 848 25.04 -8 17.6 69 -12.7 9.1
08:20 1019 30.09 848 25.04 -8.1 17.5 68 -12.9 8.8
08:25 1019 30.09 848 25.04 -8.1 17.5 66 -13.4 7.9
08:30 1019 30.09 848 25.04 -7.8 18.1 63 -13.5 7.6
08:35 1019 30.09 848 25.04 -7.5 18.6 61 -13.8 7.1
08:40 1019 30.09 848 25.04 -7.6 18.4 64 -13.2 8.3
08:45 1019 30.09 848 25.04 -7.5 18.4 64 -13.2 8.3
08:50 1019 30.09 848 25.04 -7.5 18.4 64 -13.1 8.3
08:55 1019 30.09 848 25.04 -7.2 19 63 -13 8.5
09:00 1019 30.09 848 25.04 -7 19.4 64 -12.8 9
09:05 1019 30.09 848 25.04 -7 19.4 64 -12.7 9.1
09:10 1019 30.09 848 25.04 -7 19.4 65 -12.5 9.4
09:15 1019 30.09 848 25.04 -7 19.4 64 -12.7 9.1
09:20 1019 30.09 848 25.04 -7 19.5 61 -13.3 8.1
09:25 1019 30.09 848 25.04 -7.1 19.3 61 -13.4 7.9
09:30 1019 30.09 848 25.04 -7.2 19 62 -13.3 8
09:35 1019 30.09 848 25.04 -7.2 19 60 -13.6 7.4
09:40 1019 30.09 848 25.04 -7.1 19.3 59 -13.7 7.3
09:45 1019 30.09 848 25.04 -6.5 20.2 54 -14.3 6.2
09:50 1019 30.09 848 25.04 -6 21.1 54 -13.8 7.1
09:55 1019 30.09 848 25.04 -5.5 22.1 55 -13.2 8.2
10:00 1019 30.09 848 25.04 -5 23 53 -13.1 8.4
10:05 1019 30.09 848 25.04 -4.6 23.6 49 -13.7 7.3
10:10 1019 30.09 848 25.04 -4.7 23.5 50 -13.7 7.3
10:15 1019 30.09 848 25.04 -5.3 22.4 51 -14.1 6.7
10:20 1019 30.09 848 25.04 -4.9 23.1 47 -14.5 5.9
10:25 1019 30.09 848 25.04 -4.2 24.4 46 -14.1 6.6
10:30 1019 30.09 848 25.04 -4.2 24.5 48 -13.6 7.5
10:35 1019 30.09 848 25.04 -4.2 24.4 46 -14.2 6.4
10:40 1019 30.09 848 25.04 -4.4 24 48 -13.9 6.9
10:45 1019 30.09 848 25.04 -4.2 24.5 45 -14.5 5.9
10:50 1019 30.09 848 25.04 -3.5 25.7 42 -14.7 5.6
10:55 1019 30.09 848 25.04 -3.8 25.1 46 -13.9 6.9
11:00 1019 30.09 848 25.04 -3.2 26.2 41 -14.6 5.7
11:05 1019 30.09 848 25.04 -2 28.4 39 -14.3 6.3
11:10 1019 30.09 848 25.04 -1.7 28.9 39 -14.1 6.7
11:15 1019 30.09 848 25.04 -1.2 29.8 36 -14.5 6
11:20 1019 30.09 848 25.04 -0.7 30.7 36 -14.2 6.5
11:25 1019 30.09 848 25.04 -1.2 29.9 38 -13.7 7.3
11:30 1019 30.09 848 25.04 -1 30.2 40 -13.1 8.4
11:35 1019 30.09 848 25.04 -1.1 30.1 40 -13 8.6
11:40 1019 30.09 848 25.04 -1.3 29.7 41 -13 8.7
11:45 1019 30.09 848 25.04 -1.7 28.9 43 -12.7 9.2
11:50 1019 30.09 848 25.04 -1.4 29.5 42 -12.8 9
11:55 1019 30.09 848 25.04 -1.3 29.6 43 -12.5 9.5
12:00 1019 30.09 848 25.04 -1.8 28.7 43 -12.8 9
12:05 1019 30.09 848 25.04 -2 28.4 39 -14.1 6.7
12:10 1019 30.09 848 25.04 -1.9 28.6 41 -13.4 7.9
12:15 1019 30.09 848 25.04 -1.7 28.9 44 -12.4 9.7
12:20 1019 30.09 848 25.04 -2.2 28.1 45 -12.6 9.3
12:25 1018 30.06 848 25.04 -2.2 28 41 -13.8 7.2
12:30 1018 30.06 848 25.04 -1.4 29.6 38 -14 6.7
12:35 1018 30.06 848 25.04 -1.7 29 40 -13.6 7.6
12:40 1018 30.06 848 25.04 -2.1 28.2 39 -14.4 6.1
12:45 1018 30.06 848 25.04 -1.4 29.5 36 -14.7 5.5
12:50 1018 30.06 847 25.01 -0.9 30.4 35 -14.6 5.6
12:55 1018 30.06 847 25.01 -0.9 30.4 35 -14.7 5.6
13:00 1018 30.06 847 25.01 -0.6 31 33 -14.9 5.2
13:05 1018 30.06 847 25.01 -0.7 30.8 34 -14.7 5.5
13:10 1018 30.06 847 25.01 -1.4 29.4 41 -13 8.7
13:15 1018 30.06 847 25.01 -1.9 28.5 40 -13.8 7.1
13:20 1018 30.06 847 25.01 -2.2 28.1 39 -14.4 6.1
13:25 1018 30.06 847 25.01 -2.2 28 39 -14.4 6
13:30 1018 30.06 847 25.01 -1.3 29.6 34 -15.2 4.6
13:35 1018 30.06 847 25.01 -1.2 29.8 37 -14 6.8
13:40 1018 30.06 847 25.01 -1.2 29.9 37 -14 6.9
13:45 1018 30.06 847 25.01 -1 30.2 36 -14.5 6
13:50 1018 30.06 847 25.01 -1.6 29.2 38 -14.2 6.4
13:55 1017 30.03 847 25.01 -1.2 29.9 37 -14 6.9
14:00 1017 30.03 847 25.01 -1.2 29.9 37 -14.3 6.3
14:05 1017 30.03 847 25.01 -0.8 30.5 36 -14 6.9
14:10 1017 30.03 846 24.98 -0.6 30.9 36 -14 6.7
14:15 1017 30.03 846 24.98 -0.8 30.6 34 -14.7 5.6
14:20 1017 30.03 846 24.98 -1.6 29 39 -14 6.9
14:25 1017 30.03 846 24.98 -2 28.4 39 -14.1 6.6
14:30 1017 30.03 846 24.98 -1.6 29.1 35 -15.3 4.4
14:35 1017 30.03 846 24.98 -1.7 29 38 -14.2 6.5
14:40 1017 30.03 846 24.98 -1.9 28.6 38 -14.6 5.8
14:45 1016 30 846 24.98 -2.1 28.1 39 -14.3 6.3
14:50 1016 30 846 24.98 -2.2 28 39 -14.5 5.9
14:55 1016 30 846 24.98 -2.7 27.2 42 -13.9 7
15:00 1016 30 846 24.98 -1.8 28.8 35 -15.2 4.6
15:05 1016 30 846 24.98 -2.3 27.8 42 -13.6 7.5
15:10 1016 30 846 24.98 -2.5 27.5 40 -14.2 6.5
15:15 1016 30 846 24.98 -0.9 30.3 34 -14.8 5.4
15:20 1016 30 846 24.98 -0.7 30.7 37 -13.6 7.5
15:25 1016 30 846 24.98 -0.2 31.6 33 -14.5 5.8
15:30 1016 30 846 24.98 -0.9 30.3 36 -14.3 6.3
15:35 1016 30 846 24.98 -1.6 29.2 41 -13.3 8.1
15:40 1016 30 846 24.98 -1.5 29.2 39 -13.6 7.5
15:45 1016 30 846 24.98 -1.2 29.8 41 -12.8 9
15:50 1016 30 846 24.98 -1.5 29.3 40 -13.3 8
15:55 1016 30 846 24.98 -1.2 29.8 39 -13.4 7.8
16:00 1016 30 846 24.98 -1.4 29.4 44 -12.2 10.1
16:05 1016 30 846 24.98 -2.4 27.6 45 -12.8 9
16:10 1016 30 845 24.95 -3.7 25.4 46 -13.7 7.3
16:15 1016 30 845 24.95 -3.8 25.1 46 -13.9 7
16:20 1016 30 845 24.95 -3.4 25.8 46 -13.5 7.8
16:25 1016 30 845 24.95 -3.3 26 45 -13.8 7.2
16:30 1016 30 845 24.95 -3.1 26.5 44 -13.8 7.1
16:35 1016 30 845 24.95 -3.3 26.1 44 -13.9 7.1
16:40 1016 30 845 24.95 -3.3 26.1 45 -13.7 7.3
16:45 1016 30 845 24.95 -3.7 25.3 46 -13.8 7.1
16:50 1016 30 845 24.95 -3.9 24.9 46 -13.8 7.2
16:55 1016 30 845 24.95 -3.6 25.5 45 -13.8 7.1
17:00 1016 30 845 24.95 -3.7 25.4 46 -13.8 7.2
17:05 1016 30 845 24.95 -3.9 25.1 47 -13.5 7.7
17:10 1016 30 845 24.95 -3.9 25 46 -13.9 7
17:15 1016 30 845 24.95 -4.1 24.6 47 -13.9 7
17:20 1016 30 845 24.95 -4.1 24.6 48 -13.6 7.6
17:25 1015 29.97 845 24.95 -4.3 24.3 48 -13.8 7.2
17:30 1015 29.97 844 24.92 -4.1 24.6 47 -13.8 7.2
17:35 1015 29.97 844 24.92 -4.4 24.2 48 -13.7 7.3
17:40 1015 29.97 844 24.92 -4.9 23.2 49 -14 6.7
17:45 1015 29.97 844 24.92 -4.9 23.1 49 -14.1 6.7
17:50 1015 29.97 844 24.92 -4.9 23.1 50 -13.9 7
17:55 1015 29.97 844 24.92 -4.9 23.2 49 -13.9 6.9
18:00 1014 29.94 844 24.92 -5.2 22.6 54 -13.1 8.4
18:05 1014 29.94 844 24.92 -5.6 21.9 53 -13.6 7.5
18:10 1014 29.94 843 24.89 -5.8 21.6 55 -13.4 7.8
18:15 1014 29.94 843 24.89 -5.9 21.4 53 -14 6.8
18:20 1014 29.94 843 24.89 -5.8 21.5 53 -14 6.8
18:25 1014 29.94 843 24.89 -5.7 21.8 52 -14.1 6.7
18:30 1014 29.94 843 24.89 -5.6 22 53 -13.8 7.2
18:35 1014 29.94 843 24.89 -5.7 21.8 54 -13.7 7.4
18:40 1014 29.94 843 24.89 -5.9 21.4 54 -13.8 7.2
18:45 1014 29.94 843 24.89 -6 21.3 54 -13.8 7.2
18:50 1014 29.94 843 24.89 -5.9 21.4 54 -13.8 7.2
18:55 1014 29.94 843 24.89 -5.9 21.3 54 -13.8 7.2
19:00 1014 29.94 843 24.89 -6 21.1 54 -13.8 7.1
19:05 1014 29.94 843 24.89 -6.5 20.2 57 -13.8 7.1
19:10 1014 29.94 843 24.89 -6.5 20.3 55 -14.1 6.7
19:15 1014 29.94 843 24.89 -6.3 20.6 57 -13.6 7.5
19:20 1014 29.94 843 24.89 -6.5 20.3 60 -13.1 8.4
19:25 1014 29.94 843 24.89 -7.1 19.2 63 -13.1 8.4
19:30 1014 29.94 843 24.89 -7.2 19.1 63 -13 8.6
19:35 1014 29.94 843 24.89 -7 19.4 62 -13.1 8.5
19:40 1014 29.94 843 24.89 -6.8 19.7 62 -12.9 8.8
19:45 1014 29.94 843 24.89 -7 19.5 63 -12.8 9
19:50 1014 29.94 843 24.89 -7 19.3 64 -12.8 9
19:55 1014 29.94 843 24.89 -7 19.4 65 -12.6 9.3
20:00 1014 29.94 843 24.89 -6.8 19.7 62 -12.9 8.8
20:05 1013 29.91 843 24.89 -6.3 20.6 61 -12.8 9
20:10 1013 29.91 843 24.89 -6.2 20.9 61 -12.6 9.4
20:15 1013 29.91 842 24.86 -6.1 21 59 -12.9 8.8
20:20 1013 29.91 842 24.86 -6.1 20.9 62 -12.4 9.7
20:25 1013 29.91 842 24.86 -6.3 20.6 61 -12.6 9.3
20:30 1013 29.91 842 24.86 -6.2 20.8 61 -12.5 9.5
20:35 1013 29.91 842 24.86 -6 21.2 62 -12.2 10
20:40 1013 29.91 842 24.86 -6 21.3 62 -12.1 10.2
20:45 1013 29.91 842 24.86 -5.9 21.4 62 -12.1 10.2
20:50 1013 29.91 842 24.86 -5.8 21.6 62 -12.1 10.3
20:55 1012 29.88 842 24.86 -5.7 21.7 60 -12.3 9.8
21:00 1012 29.88 842 24.86 -5.6 21.9 58 -12.6 9.4
21:05 1012 29.88 842 24.86 -5.5 22.2 57 -12.6 9.2
21:10 1012 29.88 841 24.83 -5.3 22.4 57 -12.5 9.6
21:15 1012 29.88 841 24.83 -5.2 22.6 56 -12.7 9.1
21:20 1012 29.88 841 24.83 -5.1 22.8 56 -12.5 9.5
21:25 1012 29.88 841 24.83 -5.3 22.5 59 -12.2 10.1
21:30 1012 29.88 841 24.83 -5.5 22.2 59 -12.2 10.1
21:35 1012 29.88 841 24.83 -5.6 22 60 -12.2 10.1
21:40 1012 29.88 841 24.83 -5.6 21.9 60 -12.1 10.2
21:45 1012 29.88 841 24.83 -5.6 22 60 -12.1 10.2
21:50 1012 29.88 841 24.83 -5.4 22.2 60 -12.1 10.2
21:55 1011 29.85 841 24.83 -5.4 22.3 59 -12.2 10
22:00 1011 29.85 841 24.83 -5.3 22.4 59 -12.2 10.1
22:05 1011 29.85 841 24.83 -5.3 22.4 58 -12.3 9.9
22:10 1011 29.85 840 24.81 -5.3 22.5 59 -12.1 10.2
22:15 1011 29.85 840 24.81 -5.3 22.5 60 -11.8 10.7
22:20 1011 29.85 840 24.81 -5.4 22.3 59 -12.1 10.1
22:25 1011 29.85 840 24.81 -5.4 22.3 60 -12 10.3
22:30 1011 29.85 840 24.81 -5.4 22.2 61 -11.7 10.9
22:35 1011 29.85 840 24.81 -5.4 22.4 61 -11.8 10.7
22:40 1011 29.85 840 24.81 -5.3 22.4 61 -11.6 11.1
22:45 1011 29.85 840 24.81 -5.4 22.2 63 -11.4 11.5
22:50 1011 29.85 840 24.81 -5.5 22.1 63 -11.6 11.2
22:55 1010 29.83 840 24.81 -5.3 22.5 61 -11.7 10.9
23:00 1010 29.83 840 24.81 -5.1 22.8 61 -11.5 11.4
23:05 1010 29.83 839 24.78 -5.1 22.9 63 -11.1 12.1
23:10 1010 29.83 839 24.78 -5.1 22.8 63 -11.1 12.1
23:15 1010 29.83 839 24.78 -5.1 22.8 62 -11.3 11.7
23:20 1010 29.83 839 24.78 -5 22.9 63 -11.1 12
23:25 1010 29.83 839 24.78 -5 23 62 -11.1 12
23:30 1010 29.83 839 24.78 -4.9 23.1 62 -11.1 12.1
23:35 1010 29.83 839 24.78 -4.8 23.3 62 -11 12.1
23:40 1009 29.8 839 24.78 -4.9 23.3 62 -11.1 12.1
23:45 1009 29.8 839 24.78 -4.7 23.5 60 -11.4 11.4
23:50 1009 29.8 839 24.78 -4.6 23.7 59 -11.5 11.2
23:55 1009 29.8 839 24.78 -4.5 23.9 59 -11.5 11.4
24:00 1009 29.8 838 24.75 -4.5 23.9 59 -11.3 11.6